sensor_id;sensor_type;location;lat;lon;timestamp;temperature;humidity
40848;DHT22;26570;50.962;5.340;2024-01-27T01:23:41;0.50;99.90
40848;DHT22;26570;50.962;5.340;2024-01-27T01:26:32;0.50;99.90
40848;DHT22;26570;50.962;5.340;2024-01-27T01:29:20;0.40;99.90
40848;DHT22;26570;50.962;5.340;2024-01-27T01:32:13;0.50;99.90
40848;DHT22;26570;50.962;5.340;2024-01-27T01:35:24;0.40;99.90
40848;DHT22;26570;50.962;5.340;2024-01-27T01:38:09;0.40;99.90
40848;DHT22;26570;50.962;5.340;2024-01-27T01:40:56;0.50;99.90
40848;DHT22;26570;50.962;5.340;2024-01-27T01:43:49;0.40;99.90
40848;DHT22;26570;50.962;5.340;2024-01-27T01:46:35;0.40;99.90
40848;DHT22;26570;50.962;5.340;2024-01-27T01:49:23;0.40;99.90
40848;DHT22;26570;50.962;5.340;2024-01-27T01:52:12;0.50;99.90
40848;DHT22;26570;50.962;5.340;2024-01-27T01:54:58;0.40;99.90
40848;DHT22;26570;50.962;5.340;2024-01-27T01:57:45;0.40;99.90
40848;DHT22;26570;50.962;5.340;2024-01-27T02:00:56;0.30;99.90
40848;DHT22;26570;50.962;5.340;2024-01-27T02:03:57;0.40;99.90
40848;DHT22;26570;50.962;5.340;2024-01-27T02:07:12;0.60;99.90
40848;DHT22;26570;50.962;5.340;2024-01-27T02:10:25;0.40;99.90
40848;DHT22;26570;50.962;5.340;2024-01-27T02:13:21;0.40;99.90
40848;DHT22;26570;50.962;5.340;2024-01-27T02:16:44;0.30;99.90
40848;DHT22;26570;50.962;5.340;2024-01-27T02:19:32;0.20;99.90
40848;DHT22;26570;50.962;5.340;2024-01-27T02:22:32;0.50;99.90
40848;DHT22;26570;50.962;5.340;2024-01-27T02:25:28;0.40;99.90
40848;DHT22;26570;50.962;5.340;2024-01-27T02:28:36;0.30;99.90
40848;DHT22;26570;50.962;5.340;2024-01-27T02:31:51;0.20;99.90
40848;DHT22;26570;50.962;5.340;2024-01-27T02:34:36;0.20;99.90
40848;DHT22;26570;50.962;5.340;2024-01-27T02:38:00;0.10;99.90
40848;DHT22;26570;50.962;5.340;2024-01-27T02:40:56;0.30;99.90
40848;DHT22;26570;50.962;5.340;2024-01-27T02:44:12;0.50;99.90
40848;DHT22;26570;50.962;5.340;2024-01-27T02:46:57;0.30;99.90
40848;DHT22;26570;50.962;5.340;2024-01-27T02:50:08;0.10;99.90
40848;DHT22;26570;50.962;5.340;2024-01-27T02:53:21;0.00;99.90
40848;DHT22;26570;50.962;5.340;2024-01-27T02:56:10;-0.10;99.90
40848;DHT22;26570;50.962;5.340;2024-01-27T02:59:15;-0.20;99.90
40848;DHT22;26570;50.962;5.340;2024-01-27T03:02:19;-0.20;99.90
40848;DHT22;26570;50.962;5.340;2024-01-27T03:05:05;-0.20;99.90
40848;DHT22;26570;50.962;5.340;2024-01-27T03:08:15;-0.20;99.90
40848;DHT22;26570;50.962;5.340;2024-01-27T03:11:03;-0.10;99.90
40848;DHT22;26570;50.962;5.340;2024-01-27T03:13:49;-0.20;99.90
40848;DHT22;26570;50.962;5.340;2024-01-27T03:17:12;-0.20;99.90
40848;DHT22;26570;50.962;5.340;2024-01-27T03:20:30;-0.30;99.90
40848;DHT22;26570;50.962;5.340;2024-01-27T03:23:22;-0.20;99.90
40848;DHT22;26570;50.962;5.340;2024-01-27T03:26:08;0.00;99.90
40848;DHT22;26570;50.962;5.340;2024-01-27T03:28:53;0.30;99.90
40848;DHT22;26570;50.962;5.340;2024-01-27T03:32:14;0.00;99.90
40848;DHT22;26570;50.962;5.340;2024-01-27T03:35:23;-0.10;99.90
40848;DHT22;26570;50.962;5.340;2024-01-27T03:38:36;-0.30;99.90
40848;DHT22;26570;50.962;5.340;2024-01-27T03:41:24;-0.40;99.90
40848;DHT22;26570;50.962;5.340;2024-01-27T03:44:10;-0.50;99.90
40848;DHT22;26570;50.962;5.340;2024-01-27T03:46:55;-0.40;99.90
40848;DHT22;26570;50.962;5.340;2024-01-27T03:49:44;-0.50;99.90
40848;DHT22;26570;50.962;5.340;2024-01-27T03:52:52;-0.50;99.90
40848;DHT22;26570;50.962;5.340;2024-01-27T03:56:01;-0.60;99.90
40848;DHT22;26570;50.962;5.340;2024-01-27T03:59:12;-0.60;99.90
40848;DHT22;26570;50.962;5.340;2024-01-27T04:02:06;0.40;99.90
40848;DHT22;26570;50.962;5.340;2024-01-27T04:04:52;-0.50;99.90
40848;DHT22;26570;50.962;5.340;2024-01-27T04:08:00;-0.50;99.90
40848;DHT22;26570;50.962;5.340;2024-01-27T04:11:09;-0.60;99.90
40848;DHT22;26570;50.962;5.340;2024-01-27T04:14:43;-0.50;99.90
40848;DHT22;26570;50.962;5.340;2024-01-27T04:17:48;-0.60;99.90
40848;DHT22;26570;50.962;5.340;2024-01-27T04:21:00;-0.50;99.90
40848;DHT22;26570;50.962;5.340;2024-01-27T04:23:46;-0.50;99.90
40848;DHT22;26570;50.962;5.340;2024-01-27T04:26:53;-0.30;99.90
40848;DHT22;26570;50.962;5.340;2024-01-27T04:30:14;-0.40;99.90
40848;DHT22;26570;50.962;5.340;2024-01-27T04:33:22;-0.50;99.90
40848;DHT22;26570;50.962;5.340;2024-01-27T04:36:08;-0.60;99.90
40848;DHT22;26570;50.962;5.340;2024-01-27T04:38:57;-0.60;99.90
40848;DHT22;26570;50.962;5.340;2024-01-27T04:42:18;-0.50;99.90
40848;DHT22;26570;50.962;5.340;2024-01-27T04:45:05;-1.50;99.90
40848;DHT22;26570;50.962;5.340;2024-01-27T04:48:27;-0.60;99.90
40848;DHT22;26570;50.962;5.340;2024-01-27T04:51:43;-0.60;99.90
40848;DHT22;26570;50.962;5.340;2024-01-27T04:54:31;-0.60;99.90
40848;DHT22;26570;50.962;5.340;2024-01-27T04:57:37;-0.70;99.90
40848;DHT22;26570;50.962;5.340;2024-01-27T05:00:26;-0.80;99.90
40848;DHT22;26570;50.962;5.340;2024-01-27T05:03:52;-0.70;99.90
40848;DHT22;26570;50.962;5.340;2024-01-27T05:07:01;-0.60;99.90
40848;DHT22;26570;50.962;5.340;2024-01-27T05:10:11;-0.70;99.90
40848;DHT22;26570;50.962;5.340;2024-01-27T05:13:06;-0.80;99.90
40848;DHT22;26570;50.962;5.340;2024-01-27T05:16:25;-0.80;99.90
40848;DHT22;26570;50.962;5.340;2024-01-27T05:19:17;-0.90;99.90
40848;DHT22;26570;50.962;5.340;2024-01-27T05:22:19;-0.90;99.90
40848;DHT22;26570;50.962;5.340;2024-01-27T05:25:27;-0.90;99.90
40848;DHT22;26570;50.962;5.340;2024-01-27T05:28:37;-0.90;99.90
40848;DHT22;26570;50.962;5.340;2024-01-27T05:31:52;-0.90;99.90
40848;DHT22;26570;50.962;5.340;2024-01-27T05:34:44;-0.90;99.90
40848;DHT22;26570;50.962;5.340;2024-01-27T05:37:37;-1.10;99.90
40848;DHT22;26570;50.962;5.340;2024-01-27T05:43:48;-1.00;99.90
40848;DHT22;26570;50.962;5.340;2024-01-27T05:47:05;-1.00;99.90
40848;DHT22;26570;50.962;5.340;2024-01-27T05:50:23;-1.00;99.90
40848;DHT22;26570;50.962;5.340;2024-01-27T05:53:29;-0.90;99.90
40848;DHT22;26570;50.962;5.340;2024-01-27T05:56:52;-1.00;99.90
40848;DHT22;26570;50.962;5.340;2024-01-27T06:00:00;-1.00;99.90
40848;DHT22;26570;50.962;5.340;2024-01-27T06:02:59;-1.00;99.90
40848;DHT22;26570;50.962;5.340;2024-01-27T06:05:47;-1.00;99.90
40848;DHT22;26570;50.962;5.340;2024-01-27T06:09:19;-1.10;99.90
40848;DHT22;26570;50.962;5.340;2024-01-27T06:12:07;-1.10;99.90
40848;DHT22;26570;50.962;5.340;2024-01-27T06:15:29;-0.80;99.90
40848;DHT22;26570;50.962;5.340;2024-01-27T06:18:41;-1.00;99.90
40848;DHT22;26570;50.962;5.340;2024-01-27T06:21:34;-1.20;99.90
40848;DHT22;26570;50.962;5.340;2024-01-27T06:24:20;-1.20;99.90
40848;DHT22;26570;50.962;5.340;2024-01-27T06:27:31;-1.20;99.90
40848;DHT22;26570;50.962;5.340;2024-01-27T06:30:50;-1.30;99.90
40848;DHT22;26570;50.962;5.340;2024-01-27T06:33:44;-1.30;99.90
40848;DHT22;26570;50.962;5.340;2024-01-27T06:36:33;-1.30;99.90
40848;DHT22;26570;50.962;5.340;2024-01-27T06:39:32;-1.20;99.90
40848;DHT22;26570;50.962;5.340;2024-01-27T06:42:28;-1.20;99.90
40848;DHT22;26570;50.962;5.340;2024-01-27T06:45:43;-1.20;99.90
40848;DHT22;26570;50.962;5.340;2024-01-27T06:49:07;-1.30;99.90
40848;DHT22;26570;50.962;5.340;2024-01-27T06:52:30;-1.10;99.90
40848;DHT22;26570;50.962;5.340;2024-01-27T06:55:48;-1.20;99.90
40848;DHT22;26570;50.962;5.340;2024-01-27T06:58:42;-1.20;99.90
40848;DHT22;26570;50.962;5.340;2024-01-27T07:01:46;-1.20;99.90
40848;DHT22;26570;50.962;5.340;2024-01-27T07:04:36;-1.30;99.90
40848;DHT22;26570;50.962;5.340;2024-01-27T07:07:31;-1.40;99.90
40848;DHT22;26570;50.962;5.340;2024-01-27T07:10:16;-1.40;99.90
40848;DHT22;26570;50.962;5.340;2024-01-27T07:13:05;-1.40;99.90
40848;DHT22;26570;50.962;5.340;2024-01-27T07:16:14;-1.30;99.90
40848;DHT22;26570;50.962;5.340;2024-01-27T07:19:22;-1.30;99.90
40848;DHT22;26570;50.962;5.340;2024-01-27T07:22:08;-1.20;99.90
40848;DHT22;26570;50.962;5.340;2024-01-27T07:25:16;-1.20;99.90
40848;DHT22;26570;50.962;5.340;2024-01-27T07:28:05;-1.20;99.90
40848;DHT22;26570;50.962;5.340;2024-01-27T07:31:13;-1.00;99.90
40848;DHT22;26570;50.962;5.340;2024-01-27T07:34:26;-1.10;99.90
40848;DHT22;26570;50.962;5.340;2024-01-27T07:37:12;-1.20;99.90
40848;DHT22;26570;50.962;5.340;2024-01-27T07:40:20;-1.10;99.90
40848;DHT22;26570;50.962;5.340;2024-01-27T07:43:07;-0.80;99.90
40848;DHT22;26570;50.962;5.340;2024-01-27T07:46:14;-0.80;99.90
40848;DHT22;26570;50.962;5.340;2024-01-27T07:49:03;-0.90;99.90
40848;DHT22;26570;50.962;5.340;2024-01-27T07:52:11;-1.00;99.90
40848;DHT22;26570;50.962;5.340;2024-01-27T07:55:20;-0.90;99.90
40848;DHT22;26570;50.962;5.340;2024-01-27T07:58:05;-0.90;99.90
40848;DHT22;26570;50.962;5.340;2024-01-27T08:00:50;-0.90;99.90
40848;DHT22;26570;50.962;5.340;2024-01-27T08:03:36;-0.80;99.90
40848;DHT22;26570;50.962;5.340;2024-01-27T08:06:48;-0.80;99.90
40848;DHT22;26570;50.962;5.340;2024-01-27T08:09:34;-1.70;99.90
40848;DHT22;26570;50.962;5.340;2024-01-27T08:12:19;-0.60;99.90
40848;DHT22;26570;50.962;5.340;2024-01-27T08:15:09;-0.60;99.90
40848;DHT22;26570;50.962;5.340;2024-01-27T08:18:22;-0.50;99.90
40848;DHT22;26570;50.962;5.340;2024-01-27T08:21:10;-0.50;99.90
40848;DHT22;26570;50.962;5.340;2024-01-27T08:24:18;-0.50;99.90
40848;DHT22;26570;50.962;5.340;2024-01-27T08:27:09;-0.40;99.90
40848;DHT22;26570;50.962;5.340;2024-01-27T08:30:17;-0.20;99.90
40848;DHT22;26570;50.962;5.340;2024-01-27T08:33:26;-0.10;99.90
40848;DHT22;26570;50.962;5.340;2024-01-27T08:36:29;0.00;99.90
40848;DHT22;26570;50.962;5.340;2024-01-27T08:39:16;0.40;99.90
40848;DHT22;26570;50.962;5.340;2024-01-27T08:42:03;0.30;99.90
40848;DHT22;26570;50.962;5.340;2024-01-27T08:45:21;0.30;99.90
40848;DHT22;26570;50.962;5.340;2024-01-27T08:48:07;0.50;99.90
40848;DHT22;26570;50.962;5.340;2024-01-27T08:51:28;0.60;99.90
40848;DHT22;26570;50.962;5.340;2024-01-27T08:54:43;0.70;99.90
40848;DHT22;26570;50.962;5.340;2024-01-27T08:57:27;0.80;99.90
40848;DHT22;26570;50.962;5.340;2024-01-27T09:00:13;1.00;99.90
40848;DHT22;26570;50.962;5.340;2024-01-27T09:03:00;1.50;99.90
40848;DHT22;26570;50.962;5.340;2024-01-27T09:05:49;1.40;99.90
40848;DHT22;26570;50.962;5.340;2024-01-27T09:08:35;1.40;99.90
40848;DHT22;26570;50.962;5.340;2024-01-27T09:11:20;1.40;99.90
40848;DHT22;26570;50.962;5.340;2024-01-27T09:14:31;1.50;99.90
40848;DHT22;26570;50.962;5.340;2024-01-27T09:17:18;1.80;99.90
40848;DHT22;26570;50.962;5.340;2024-01-27T09:20:26;2.00;99.90
40848;DHT22;26570;50.962;5.340;2024-01-27T09:23:11;2.20;99.90
40848;DHT22;26570;50.962;5.340;2024-01-27T09:26:19;2.30;99.90
40848;DHT22;26570;50.962;5.340;2024-01-27T09:29:45;2.80;99.90
40848;DHT22;26570;50.962;5.340;2024-01-27T09:32:30;3.30;99.90
40848;DHT22;26570;50.962;5.340;2024-01-27T09:35:39;3.40;99.90
40848;DHT22;26570;50.962;5.340;2024-01-27T09:39:04;3.60;99.90
40848;DHT22;26570;50.962;5.340;2024-01-27T09:41:50;3.60;99.90
40848;DHT22;26570;50.962;5.340;2024-01-27T09:45:02;3.70;99.90
40848;DHT22;26570;50.962;5.340;2024-01-27T09:47:56;3.90;99.90
40848;DHT22;26570;50.962;5.340;2024-01-27T09:51:01;4.10;99.90
40848;DHT22;26570;50.962;5.340;2024-01-27T09:53:48;4.30;99.90
40848;DHT22;26570;50.962;5.340;2024-01-27T09:56:58;4.40;99.90
40848;DHT22;26570;50.962;5.340;2024-01-27T10:00:09;5.00;99.90
40848;DHT22;26570;50.962;5.340;2024-01-27T10:06:16;4.60;99.90
40848;DHT22;26570;50.962;5.340;2024-01-27T10:09:43;4.60;99.90
40848;DHT22;26570;50.962;5.340;2024-01-27T10:12:40;4.90;99.90
40848;DHT22;26570;50.962;5.340;2024-01-27T10:15:37;5.10;99.90
40848;DHT22;26570;50.962;5.340;2024-01-27T10:19:05;5.20;99.90
40848;DHT22;26570;50.962;5.340;2024-01-27T10:22:10;5.40;99.90
40848;DHT22;26570;50.962;5.340;2024-01-27T10:29:08;6.00;99.90
40848;DHT22;26570;50.962;5.340;2024-01-27T10:31:54;6.30;99.90
40848;DHT22;26570;50.962;5.340;2024-01-27T10:34:39;6.50;99.90
40848;DHT22;26570;50.962;5.340;2024-01-27T10:37:55;6.50;99.90
40848;DHT22;26570;50.962;5.340;2024-01-27T10:41:08;6.90;99.90
40848;DHT22;26570;50.962;5.340;2024-01-27T10:44:23;7.10;99.90
40848;DHT22;26570;50.962;5.340;2024-01-27T10:47:23;6.90;99.90
40848;DHT22;26570;50.962;5.340;2024-01-27T10:50:37;7.00;99.90
40848;DHT22;26570;50.962;5.340;2024-01-27T10:53:26;6.80;99.90
40848;DHT22;26570;50.962;5.340;2024-01-27T10:56:38;6.80;99.90
40848;DHT22;26570;50.962;5.340;2024-01-27T10:59:54;6.80;99.90
40848;DHT22;26570;50.962;5.340;2024-01-27T11:02:44;6.80;99.90
40848;DHT22;26570;50.962;5.340;2024-01-27T11:05:34;7.00;99.90
40848;DHT22;26570;50.962;5.340;2024-01-27T11:08:41;7.00;99.90
40848;DHT22;26570;50.962;5.340;2024-01-27T11:11:27;7.00;99.90
40848;DHT22;26570;50.962;5.340;2024-01-27T11:14:12;7.30;99.90
40848;DHT22;26570;50.962;5.340;2024-01-27T11:17:25;7.30;99.90
40848;DHT22;26570;50.962;5.340;2024-01-27T11:20:19;7.50;99.90
40848;DHT22;26570;50.962;5.340;2024-01-27T11:23:41;7.60;99.90
40848;DHT22;26570;50.962;5.340;2024-01-27T11:27:06;7.60;99.90
40848;DHT22;26570;50.962;5.340;2024-01-27T11:29:58;7.80;99.90
40848;DHT22;26570;50.962;5.340;2024-01-27T11:33:18;7.80;99.90
40848;DHT22;26570;50.962;5.340;2024-01-27T11:36:26;8.00;99.90
40848;DHT22;26570;50.962;5.340;2024-01-27T11:39:34;8.20;99.90
40848;DHT22;26570;50.962;5.340;2024-01-27T11:43:00;8.50;99.90
40848;DHT22;26570;50.962;5.340;2024-01-27T11:49:27;8.70;99.90
40848;DHT22;26570;50.962;5.340;2024-01-27T12:03:33;9.10;99.90
40848;DHT22;26570;50.962;5.340;2024-01-27T12:06:46;9.40;99.90
40848;DHT22;26570;50.962;5.340;2024-01-27T12:09:59;9.40;99.90
40848;DHT22;26570;50.962;5.340;2024-01-27T12:13:22;9.50;99.90
40848;DHT22;26570;50.962;5.340;2024-01-27T12:16:36;9.40;99.90
40848;DHT22;26570;50.962;5.340;2024-01-27T12:19:21;9.10;99.90
40848;DHT22;26570;50.962;5.340;2024-01-27T12:22:38;9.30;99.90
40848;DHT22;26570;50.962;5.340;2024-01-27T12:25:55;9.50;99.90
40848;DHT22;26570;50.962;5.340;2024-01-27T12:29:10;9.30;99.90
40848;DHT22;26570;50.962;5.340;2024-01-27T12:31:58;9.20;99.90
40848;DHT22;26570;50.962;5.340;2024-01-27T12:34:50;9.00;99.90
40848;DHT22;26570;50.962;5.340;2024-01-27T12:38:10;8.90;99.90
40848;DHT22;26570;50.962;5.340;2024-01-27T12:41:23;9.00;99.90
40848;DHT22;26570;50.962;5.340;2024-01-27T12:44:19;9.30;99.90
40848;DHT22;26570;50.962;5.340;2024-01-27T12:47:24;9.40;99.90
40848;DHT22;26570;50.962;5.340;2024-01-27T12:50:32;9.50;99.90
40848;DHT22;26570;50.962;5.340;2024-01-27T12:53:19;9.50;99.90
40848;DHT22;26570;50.962;5.340;2024-01-27T12:56:26;9.60;99.90
40848;DHT22;26570;50.962;5.340;2024-01-27T12:59:34;9.70;99.90
40848;DHT22;26570;50.962;5.340;2024-01-27T13:02:19;9.80;99.90
40848;DHT22;26570;50.962;5.340;2024-01-27T13:05:27;9.70;99.90
40848;DHT22;26570;50.962;5.340;2024-01-27T13:08:19;9.80;99.90
40848;DHT22;26570;50.962;5.340;2024-01-27T13:11:11;9.70;99.90
40848;DHT22;26570;50.962;5.340;2024-01-27T13:13:57;9.60;99.90
40848;DHT22;26570;50.962;5.340;2024-01-27T13:16:45;9.50;99.90
40848;DHT22;26570;50.962;5.340;2024-01-27T13:20:14;9.60;99.90
40848;DHT22;26570;50.962;5.340;2024-01-27T13:23:30;9.70;99.90
40848;DHT22;26570;50.962;5.340;2024-01-27T13:26:18;9.90;99.90
40848;DHT22;26570;50.962;5.340;2024-01-27T13:29:44;9.60;99.90
40848;DHT22;26570;50.962;5.340;2024-01-27T13:33:02;9.80;99.90
40848;DHT22;26570;50.962;5.340;2024-01-27T13:35:47;10.00;99.90
40848;DHT22;26570;50.962;5.340;2024-01-27T13:38:32;10.10;99.90
40848;DHT22;26570;50.962;5.340;2024-01-27T13:41:38;9.80;99.90
40848;DHT22;26570;50.962;5.340;2024-01-27T13:44:23;10.10;99.90
40848;DHT22;26570;50.962;5.340;2024-01-27T13:47:34;10.10;99.90
40848;DHT22;26570;50.962;5.340;2024-01-27T13:50:19;9.90;99.90
40848;DHT22;26570;50.962;5.340;2024-01-27T13:53:07;9.90;99.90
40848;DHT22;26570;50.962;5.340;2024-01-27T13:55:52;9.90;99.90
40848;DHT22;26570;50.962;5.340;2024-01-27T13:59:12;9.90;99.90
40848;DHT22;26570;50.962;5.340;2024-01-27T14:02:26;9.80;99.90
40848;DHT22;26570;50.962;5.340;2024-01-27T14:05:15;9.70;99.90
40848;DHT22;26570;50.962;5.340;2024-01-27T14:08:00;9.60;99.90
40848;DHT22;26570;50.962;5.340;2024-01-27T14:11:12;9.70;99.90
40848;DHT22;26570;50.962;5.340;2024-01-27T14:14:19;9.90;99.90
40848;DHT22;26570;50.962;5.340;2024-01-27T14:17:36;9.80;99.90
40848;DHT22;26570;50.962;5.340;2024-01-27T14:20:21;9.90;99.90
40848;DHT22;26570;50.962;5.340;2024-01-27T14:23:43;10.00;99.90
40848;DHT22;26570;50.962;5.340;2024-01-27T14:27:00;9.90;99.90
40848;DHT22;26570;50.962;5.340;2024-01-27T14:29:49;9.70;99.90
40848;DHT22;26570;50.962;5.340;2024-01-27T14:33:08;9.70;99.90
40848;DHT22;26570;50.962;5.340;2024-01-27T14:35:54;9.70;99.90
40848;DHT22;26570;50.962;5.340;2024-01-27T14:38:40;9.90;99.90
40848;DHT22;26570;50.962;5.340;2024-01-27T14:42:04;10.00;99.90
40848;DHT22;26570;50.962;5.340;2024-01-27T14:44:52;9.80;99.90
40848;DHT22;26570;50.962;5.340;2024-01-27T14:48:00;10.00;99.90
40848;DHT22;26570;50.962;5.340;2024-01-27T14:50:46;9.90;99.90
40848;DHT22;26570;50.962;5.340;2024-01-27T14:53:37;9.90;99.90
40848;DHT22;26570;50.962;5.340;2024-01-27T14:56:34;9.80;99.90
40848;DHT22;26570;50.962;5.340;2024-01-27T14:59:56;9.90;99.90
40848;DHT22;26570;50.962;5.340;2024-01-27T15:02:49;9.90;99.90
40848;DHT22;26570;50.962;5.340;2024-01-27T15:05:37;9.90;99.90
40848;DHT22;26570;50.962;5.340;2024-01-27T15:09:05;9.90;99.90
40848;DHT22;26570;50.962;5.340;2024-01-27T15:12:12;10.20;99.90
40848;DHT22;26570;50.962;5.340;2024-01-27T15:15:00;10.30;99.90
40848;DHT22;26570;50.962;5.340;2024-01-27T15:18:07;10.20;99.90
40848;DHT22;26570;50.962;5.340;2024-01-27T15:21:35;10.00;99.90
40848;DHT22;26570;50.962;5.340;2024-01-27T15:24:33;10.10;99.90
40848;DHT22;26570;50.962;5.340;2024-01-27T15:27:21;9.90;99.90
40848;DHT22;26570;50.962;5.340;2024-01-27T15:30:07;10.00;99.90
40848;DHT22;26570;50.962;5.340;2024-01-27T15:33:17;10.10;99.90
40848;DHT22;26570;50.962;5.340;2024-01-27T15:40:02;9.50;99.90
40848;DHT22;26570;50.962;5.340;2024-01-27T15:42:51;9.50;99.90
40848;DHT22;26570;50.962;5.340;2024-01-27T15:45:58;9.30;99.90
40848;DHT22;26570;50.962;5.340;2024-01-27T15:49:16;9.30;99.90
40848;DHT22;26570;50.962;5.340;2024-01-27T15:52:32;9.20;99.90
40848;DHT22;26570;50.962;5.340;2024-01-27T15:55:20;9.00;99.90
40848;DHT22;26570;50.962;5.340;2024-01-27T15:58:34;9.00;99.90
40848;DHT22;26570;50.962;5.340;2024-01-27T16:01:41;8.90;99.90
40848;DHT22;26570;50.962;5.340;2024-01-27T16:04:49;9.00;99.90
40848;DHT22;26570;50.962;5.340;2024-01-27T16:07:34;8.80;99.90
40848;DHT22;26570;50.962;5.340;2024-01-27T16:10:46;8.90;99.90
40848;DHT22;26570;50.962;5.340;2024-01-27T16:13:54;8.80;99.90
40848;DHT22;26570;50.962;5.340;2024-01-27T16:16:44;8.40;99.90
40848;DHT22;26570;50.962;5.340;2024-01-27T16:19:56;8.30;99.90
40848;DHT22;26570;50.962;5.340;2024-01-27T16:23:04;8.10;99.90
40848;DHT22;26570;50.962;5.340;2024-01-27T16:25:50;7.90;99.90
40848;DHT22;26570;50.962;5.340;2024-01-27T16:29:01;7.70;99.90
40848;DHT22;26570;50.962;5.340;2024-01-27T16:32:10;7.50;99.90
40848;DHT22;26570;50.962;5.340;2024-01-27T16:35:24;7.40;99.90
40848;DHT22;26570;50.962;5.340;2024-01-27T16:38:15;7.20;99.90
40848;DHT22;26570;50.962;5.340;2024-01-27T16:41:23;7.10;99.90
40848;DHT22;26570;50.962;5.340;2024-01-27T16:44:09;7.00;99.90
40848;DHT22;26570;50.962;5.340;2024-01-27T16:47:19;6.90;99.90
40848;DHT22;26570;50.962;5.340;2024-01-27T16:50:06;6.70;99.90
40848;DHT22;26570;50.962;5.340;2024-01-27T16:53:17;6.50;99.90
40848;DHT22;26570;50.962;5.340;2024-01-27T16:56:03;6.50;99.90
40848;DHT22;26570;50.962;5.340;2024-01-27T17:17:38;6.10;99.90
40848;DHT22;26570;50.962;5.340;2024-01-27T17:20:44;5.70;99.90
40848;DHT22;26570;50.962;5.340;2024-01-27T17:23:29;5.60;99.90
40848;DHT22;26570;50.962;5.340;2024-01-27T17:26:52;5.40;99.90
40848;DHT22;26570;50.962;5.340;2024-01-27T17:30:00;5.30;99.90
40848;DHT22;26570;50.962;5.340;2024-01-27T17:33:11;5.20;99.90
40848;DHT22;26570;50.962;5.340;2024-01-27T17:35:56;5.20;99.90
40848;DHT22;26570;50.962;5.340;2024-01-27T17:38:44;5.20;99.90
40848;DHT22;26570;50.962;5.340;2024-01-27T17:41:29;5.00;99.90
40848;DHT22;26570;50.962;5.340;2024-01-27T17:44:14;5.00;99.90
40848;DHT22;26570;50.962;5.340;2024-01-27T17:46:59;5.00;99.90
40848;DHT22;26570;50.962;5.340;2024-01-27T17:49:44;4.90;99.90
40848;DHT22;26570;50.962;5.340;2024-01-27T17:52:33;4.90;99.90
40848;DHT22;26570;50.962;5.340;2024-01-27T17:55:21;4.90;99.90
40848;DHT22;26570;50.962;5.340;2024-01-27T17:58:45;4.80;99.90
40848;DHT22;26570;50.962;5.340;2024-01-27T18:01:53;4.90;99.90
40848;DHT22;26570;50.962;5.340;2024-01-27T18:05:01;4.70;99.90
40848;DHT22;26570;50.962;5.340;2024-01-27T18:07:49;4.80;99.90
40848;DHT22;26570;50.962;5.340;2024-01-27T18:10:57;4.80;99.90
40848;DHT22;26570;50.962;5.340;2024-01-27T18:13:46;4.80;99.90
40848;DHT22;26570;50.962;5.340;2024-01-27T18:16:33;4.70;99.90
40848;DHT22;26570;50.962;5.340;2024-01-27T18:19:18;4.70;99.90
40848;DHT22;26570;50.962;5.340;2024-01-27T18:22:23;4.80;99.90
40848;DHT22;26570;50.962;5.340;2024-01-27T18:25:29;4.70;99.90
40848;DHT22;26570;50.962;5.340;2024-01-27T18:28:14;4.60;99.90
40848;DHT22;26570;50.962;5.340;2024-01-27T18:31:22;4.50;99.90
40848;DHT22;26570;50.962;5.340;2024-01-27T18:34:08;4.50;99.90
40848;DHT22;26570;50.962;5.340;2024-01-27T18:36:53;4.50;99.90
40848;DHT22;26570;50.962;5.340;2024-01-27T18:39:39;4.40;99.90
40848;DHT22;26570;50.962;5.340;2024-01-27T18:42:25;4.50;99.90
40848;DHT22;26570;50.962;5.340;2024-01-27T18:45:47;4.50;99.90
40848;DHT22;26570;50.962;5.340;2024-01-27T18:49:00;4.40;99.90
40848;DHT22;26570;50.962;5.340;2024-01-27T18:51:45;4.40;99.90
40848;DHT22;26570;50.962;5.340;2024-01-27T18:54:30;4.30;99.90
40848;DHT22;26570;50.962;5.340;2024-01-27T18:57:22;4.30;99.90
40848;DHT22;26570;50.962;5.340;2024-01-27T19:00:27;4.20;99.90
40848;DHT22;26570;50.962;5.340;2024-01-27T19:03:43;4.10;99.90
40848;DHT22;26570;50.962;5.340;2024-01-27T19:06:51;4.10;99.90
40848;DHT22;26570;50.962;5.340;2024-01-27T19:09:37;4.20;99.90
40848;DHT22;26570;50.962;5.340;2024-01-27T19:12:32;4.10;99.90
40848;DHT22;26570;50.962;5.340;2024-01-27T19:15:20;4.10;99.90
40848;DHT22;26570;50.962;5.340;2024-01-27T19:18:38;4.10;99.90
40848;DHT22;26570;50.962;5.340;2024-01-27T19:21:47;4.20;99.90
40848;DHT22;26570;50.962;5.340;2024-01-27T19:24:32;3.90;99.90
40848;DHT22;26570;50.962;5.340;2024-01-27T19:27:23;3.80;99.90
40848;DHT22;26570;50.962;5.340;2024-01-27T19:30:36;3.70;99.90
40848;DHT22;26570;50.962;5.340;2024-01-27T19:33:33;3.70;99.90
40848;DHT22;26570;50.962;5.340;2024-01-27T19:36:18;3.70;99.90
40848;DHT22;26570;50.962;5.340;2024-01-27T19:39:03;3.70;99.90
40848;DHT22;26570;50.962;5.340;2024-01-27T19:42:12;3.50;99.90
40848;DHT22;26570;50.962;5.340;2024-01-27T19:45:25;3.30;99.90
40848;DHT22;26570;50.962;5.340;2024-01-27T19:48:14;3.20;99.90
40848;DHT22;26570;50.962;5.340;2024-01-27T19:51:26;3.20;99.90
40848;DHT22;26570;50.962;5.340;2024-01-27T19:54:34;2.90;99.90
40848;DHT22;26570;50.962;5.340;2024-01-27T19:57:31;2.90;99.90
40848;DHT22;26570;50.962;5.340;2024-01-27T20:00:20;3.00;99.90
40848;DHT22;26570;50.962;5.340;2024-01-27T20:03:30;2.80;99.90
40848;DHT22;26570;50.962;5.340;2024-01-27T20:06:21;2.80;99.90
40848;DHT22;26570;50.962;5.340;2024-01-27T20:09:07;2.60;99.90
40848;DHT22;26570;50.962;5.340;2024-01-27T20:11:59;2.60;99.90
40848;DHT22;26570;50.962;5.340;2024-01-27T20:15:07;2.60;99.90
40848;DHT22;26570;50.962;5.340;2024-01-27T20:18:31;2.50;99.90
40848;DHT22;26570;50.962;5.340;2024-01-27T20:21:16;2.60;99.90
40848;DHT22;26570;50.962;5.340;2024-01-27T20:24:02;2.50;99.90
40848;DHT22;26570;50.962;5.340;2024-01-27T20:26:47;2.60;99.90
40848;DHT22;26570;50.962;5.340;2024-01-27T20:29:43;2.60;99.90
40848;DHT22;26570;50.962;5.340;2024-01-27T20:32:37;2.70;99.90
40848;DHT22;26570;50.962;5.340;2024-01-27T20:35:24;2.60;99.90
40848;DHT22;26570;50.962;5.340;2024-01-27T20:38:11;2.40;99.90
40848;DHT22;26570;50.962;5.340;2024-01-27T20:40:59;2.20;99.90
40848;DHT22;26570;50.962;5.340;2024-01-27T20:44:07;2.30;99.90
40848;DHT22;26570;50.962;5.340;2024-01-27T20:46:53;2.20;99.90
40848;DHT22;26570;50.962;5.340;2024-01-27T20:50:10;2.20;99.90
40848;DHT22;26570;50.962;5.340;2024-01-27T20:53:00;2.20;99.90
40848;DHT22;26570;50.962;5.340;2024-01-27T20:55:52;2.20;99.90
40848;DHT22;26570;50.962;5.340;2024-01-27T20:58:40;2.20;99.90
40848;DHT22;26570;50.962;5.340;2024-01-27T21:01:31;2.20;99.90
40848;DHT22;26570;50.962;5.340;2024-01-27T21:04:45;2.20;99.90
40848;DHT22;26570;50.962;5.340;2024-01-27T21:07:37;2.10;99.90
40848;DHT22;26570;50.962;5.340;2024-01-27T21:10:53;2.00;99.90
40848;DHT22;26570;50.962;5.340;2024-01-27T21:13:39;1.90;99.90
40848;DHT22;26570;50.962;5.340;2024-01-27T21:16:24;1.90;99.90
40848;DHT22;26570;50.962;5.340;2024-01-27T21:19:10;1.80;99.90
40848;DHT22;26570;50.962;5.340;2024-01-27T21:31:07;1.70;99.90
40848;DHT22;26570;50.962;5.340;2024-01-27T21:33:53;1.70;99.90